createdAt,value
2018-05-09T00:00:34.806Z,40.41
2018-05-09T00:03:03.074Z,40.69
2018-05-09T00:05:31.836Z,40.78
2018-05-09T00:08:00.046Z,40.72
2018-05-09T00:10:28.222Z,40.92
2018-05-09T00:12:56.933Z,41.42
2018-05-09T00:15:25.169Z,41.12
2018-05-09T00:17:53.363Z,41.11
2018-05-09T00:20:22.053Z,41.39
2018-05-09T00:22:50.274Z,41.54
2018-05-09T00:25:18.499Z,41.52
2018-05-09T00:27:47.155Z,41.61
2018-05-09T00:30:15.376Z,41.77
2018-05-09T00:32:43.776Z,41.93
2018-05-09T00:35:12.446Z,42.07
2018-05-09T00:37:40.619Z,42.41
2018-05-09T00:40:08.837Z,42.50
2018-05-09T00:42:37.602Z,42.50
2018-05-09T00:45:05.782Z,42.79
2018-05-09T00:47:34.041Z,42.93
2018-05-09T00:50:02.772Z,42.92
2018-05-09T00:52:30.975Z,43.07
2018-05-09T00:54:59.238Z,43.00
2018-05-09T00:57:27.969Z,43.41
2018-05-09T00:59:56.172Z,43.46
2018-05-09T01:02:24.378Z,43.57
2018-05-09T01:04:53.093Z,43.63
2018-05-09T01:07:21.277Z,43.68
2018-05-09T01:09:49.485Z,43.92
2018-05-09T01:12:18.208Z,44.24
2018-05-09T01:14:46.403Z,44.23
2018-05-09T01:17:14.647Z,44.40
2018-05-09T01:19:43.393Z,44.52
2018-05-09T01:22:11.565Z,44.64
2018-05-09T01:24:39.765Z,44.83
2018-05-09T01:27:08.489Z,45.05
2018-05-09T01:29:36.678Z,45.16
2018-05-09T01:32:05.118Z,45.41
2018-05-09T01:34:33.895Z,45.58
2018-05-09T01:37:02.091Z,45.72
2018-05-09T01:39:30.248Z,46.04
2018-05-09T01:41:58.931Z,46.04
2018-05-09T01:44:27.125Z,46.22
2018-05-09T01:46:55.329Z,46.37
2018-05-09T01:49:24.112Z,46.67
2018-05-09T01:51:52.288Z,46.87
2018-05-09T01:54:20.495Z,46.73
2018-05-09T01:56:49.221Z,46.79
2018-05-09T01:59:17.391Z,46.88
2018-05-09T02:01:45.704Z,46.72
2018-05-09T02:04:14.487Z,47.06
2018-05-09T02:06:42.665Z,46.85
2018-05-09T02:09:10.851Z,47.33
2018-05-09T02:11:39.641Z,47.37
2018-05-09T02:14:07.884Z,47.52
2018-05-09T02:16:36.191Z,47.61
2018-05-09T02:19:04.897Z,47.61
2018-05-09T02:21:33.077Z,47.46
2018-05-09T02:24:01.279Z,47.73
2018-05-09T02:26:30.683Z,47.82
2018-05-09T02:28:58.913Z,48.02
2018-05-09T02:31:27.989Z,47.90
2018-05-09T02:33:56.462Z,47.92
2018-05-09T02:36:25.217Z,48.23
2018-05-09T02:38:53.404Z,48.04
2018-05-09T02:41:21.601Z,48.09
2018-05-09T02:43:50.447Z,48.32
2018-05-09T02:46:18.605Z,48.37
2018-05-09T02:48:46.814Z,48.40
2018-05-09T02:51:15.612Z,48.52
2018-05-09T02:53:43.810Z,48.83
2018-05-09T02:56:12.029Z,48.86
2018-05-09T02:58:41.553Z,48.95
2018-05-09T03:01:09.750Z,49.30
2018-05-09T03:03:37.937Z,49.50
2018-05-09T03:06:06.517Z,49.59
2018-05-09T03:08:34.702Z,50.03
2018-05-09T03:11:03.045Z,50.17
2018-05-09T03:13:31.810Z,50.41
2018-05-09T03:16:00.043Z,50.50
2018-05-09T03:18:29.219Z,50.70
2018-05-09T03:20:57.688Z,51.02
2018-05-09T03:23:26.386Z,51.26
2018-05-09T03:25:54.574Z,51.45
2018-05-09T03:28:22.794Z,51.62
2018-05-09T03:30:51.618Z,51.76
2018-05-09T03:33:19.817Z,51.72
2018-05-09T03:35:47.988Z,51.94
2018-05-09T03:38:16.743Z,52.20
2018-05-09T03:40:44.933Z,52.27
2018-05-09T03:43:13.138Z,52.33
2018-05-09T03:45:41.879Z,52.47
2018-05-09T03:48:10.115Z,52.73
2018-05-09T03:50:38.358Z,52.68
2018-05-09T03:53:07.227Z,52.77
2018-05-09T03:55:35.533Z,52.63
2018-05-09T03:58:04.341Z,52.86
2018-05-09T04:00:32.961Z,52.87
2018-05-09T04:03:13.047Z,52.97
2018-05-09T04:05:53.075Z,53.02
2018-05-09T04:08:33.180Z,53.30
2018-05-09T04:11:01.393Z,53.40
2018-05-09T04:13:29.845Z,53.31
2018-05-09T04:18:43.816Z,53.50
2018-05-09T04:21:12.041Z,53.53
2018-05-09T04:23:40.233Z,53.63
2018-05-09T04:26:09.068Z,53.48
2018-05-09T04:28:37.293Z,53.41
2018-05-09T04:31:05.502Z,53.22
2018-05-09T04:33:34.195Z,53.27
2018-05-09T04:36:02.436Z,53.34
2018-05-09T04:38:30.648Z,53.05
2018-05-09T04:40:59.319Z,53.05
2018-05-09T04:43:27.763Z,53.41
2018-05-09T04:45:55.988Z,53.10
2018-05-09T04:48:24.449Z,53.22
2018-05-09T04:51:11.597Z,53.12
2018-05-09T04:53:42.948Z,52.97
2018-05-09T04:56:11.144Z,52.90
2018-05-09T04:58:39.755Z,52.85
2018-05-09T05:01:07.970Z,52.84
2018-05-09T05:03:36.173Z,52.88
2018-05-09T05:06:04.910Z,52.79
2018-05-09T05:08:33.182Z,52.90
2018-05-09T05:11:01.389Z,52.80
2018-05-09T05:13:30.113Z,52.72
2018-05-09T05:15:58.346Z,53.24
2018-05-09T05:18:26.516Z,52.74
2018-05-09T05:20:55.305Z,52.78
2018-05-09T05:23:23.609Z,52.41
2018-05-09T05:25:51.782Z,52.79
2018-05-09T05:28:20.445Z,52.74
2018-05-09T05:30:48.676Z,52.60
2018-05-09T05:33:16.850Z,52.58
2018-05-09T05:35:45.668Z,52.47
2018-05-09T05:38:13.884Z,52.39
2018-05-09T05:40:42.198Z,52.35
2018-05-09T05:43:13.149Z,52.32
2018-05-09T05:45:46.025Z,52.06
2018-05-09T05:48:28.280Z,51.45
2018-05-09T05:51:08.971Z,51.16
2018-05-09T05:53:48.562Z,51.27
2018-05-09T05:56:22.663Z,50.97
2018-05-09T05:58:59.917Z,50.75
2018-05-09T06:01:38.871Z,50.36
2018-05-09T06:04:18.884Z,50.37
2018-05-09T06:06:56.851Z,50.22
2018-05-09T06:09:37.263Z,50.03
2018-05-09T06:12:18.409Z,50.14
2018-05-09T06:14:46.918Z,49.64
2018-05-09T06:17:23.634Z,49.22
2018-05-09T06:19:57.500Z,48.82
2018-05-09T06:22:31.405Z,48.52
2018-05-09T06:25:09.014Z,48.39
2018-05-09T06:27:54.805Z,47.91
2018-05-09T06:30:37.112Z,47.40
2018-05-09T06:33:09.625Z,47.39
2018-05-09T06:35:49.768Z,47.30
2018-05-09T06:38:37.924Z,46.96
2018-05-09T06:41:13.200Z,46.45
2018-05-09T06:43:48.387Z,46.52
2018-05-09T06:46:32.638Z,46.71
2018-05-09T06:49:14.856Z,46.53
2018-05-09T06:51:52.833Z,45.97
2018-05-09T06:54:36.573Z,46.19
2018-05-09T06:57:28.596Z,45.31
2018-05-09T07:00:17.014Z,45.81
2018-05-09T07:02:55.705Z,45.40
2018-05-09T07:05:36.898Z,45.02
2018-05-09T07:08:12.434Z,44.28
2018-05-09T07:10:41.879Z,44.00
2018-05-09T07:13:17.842Z,43.86
2018-05-09T07:15:53.795Z,44.23
2018-05-09T07:18:28.686Z,43.83
2018-05-09T07:21:10.182Z,44.25
2018-05-09T07:23:48.138Z,44.47
2018-05-09T07:26:23.494Z,44.53
2018-05-09T07:28:58.075Z,44.07
2018-05-09T07:31:37.501Z,44.07
2018-05-09T07:34:12.709Z,43.47
2018-05-09T07:36:48.458Z,43.29
2018-05-09T07:39:29.069Z,43.88
2018-05-09T07:42:00.889Z,43.87
2018-05-09T07:44:39.389Z,42.45
2018-05-09T07:47:13.215Z,42.64
2018-05-09T07:49:51.518Z,42.56
2018-05-09T07:52:32.663Z,42.14
2018-05-09T07:55:04.645Z,41.85
2018-05-09T07:57:41.359Z,41.20
2018-05-09T08:00:12.061Z,41.99
2018-05-09T08:02:45.056Z,41.21
2018-05-09T08:05:15.089Z,40.73
2018-05-09T08:07:50.834Z,41.12
2018-05-09T08:10:34.902Z,41.21
2018-05-09T08:13:03.107Z,41.15
2018-05-09T08:15:31.299Z,41.58
2018-05-09T08:17:59.684Z,40.94
2018-05-09T08:20:28.377Z,39.65
2018-05-09T08:22:56.559Z,38.86
2018-05-09T08:25:24.816Z,38.67
2018-05-09T08:27:53.598Z,38.66
2018-05-09T08:30:21.835Z,38.95
2018-05-09T08:32:49.999Z,38.62
2018-05-09T08:35:18.631Z,38.36
2018-05-09T08:37:46.823Z,37.80
2018-05-09T08:40:15.244Z,37.39
2018-05-09T08:42:43.826Z,37.62
2018-05-09T08:45:12.016Z,37.56
2018-05-09T08:47:40.289Z,37.13
2018-05-09T08:50:08.898Z,37.18
2018-05-09T08:52:37.090Z,37.53
2018-05-09T08:55:05.584Z,37.54
2018-05-09T08:57:34.137Z,36.95
2018-05-09T09:00:02.369Z,36.93
2018-05-09T09:02:30.596Z,36.63
2018-05-09T09:04:59.288Z,35.72
2018-05-09T09:07:27.471Z,36.22
2018-05-09T09:09:55.685Z,35.85
2018-05-09T09:12:24.399Z,35.27
2018-05-09T09:14:52.583Z,35.21
2018-05-09T09:17:20.812Z,35.07
2018-05-09T09:19:49.041Z,35.08
2018-05-09T09:22:17.229Z,34.34
2018-05-09T09:24:45.907Z,35.20
2018-05-09T09:27:14.136Z,34.98
2018-05-09T09:29:42.311Z,35.49
2018-05-09T09:32:11.000Z,35.03
2018-05-09T09:34:39.233Z,35.08
2018-05-09T09:37:07.422Z,34.42
2018-05-09T09:39:36.144Z,34.54
2018-05-09T09:42:04.355Z,34.80
2018-05-09T09:44:32.538Z,35.14
2018-05-09T09:47:00.998Z,35.35
2018-05-09T09:49:29.201Z,35.12
2018-05-09T09:51:57.574Z,34.78
2018-05-09T09:54:26.112Z,34.24
2018-05-09T09:56:54.311Z,34.11
2018-05-09T09:59:22.766Z,33.50
2018-05-09T10:01:51.366Z,34.15
2018-05-09T10:04:19.578Z,34.28
2018-05-09T10:06:47.872Z,34.21
2018-05-09T10:09:16.530Z,34.11
2018-05-09T10:11:44.759Z,33.92
2018-05-09T10:14:13.171Z,33.21
2018-05-09T10:16:41.740Z,33.18
2018-05-09T10:19:09.939Z,33.72
2018-05-09T10:21:38.263Z,33.18
2018-05-09T10:24:06.869Z,32.22
2018-05-09T10:26:35.064Z,32.35
2018-05-09T10:29:03.486Z,32.63
2018-05-09T10:31:32.221Z,32.30
2018-05-09T10:34:00.333Z,32.29
2018-05-09T10:36:28.644Z,31.73
2018-05-09T10:38:57.261Z,32.06
2018-05-09T10:41:25.453Z,31.94
2018-05-09T10:43:53.858Z,31.96
2018-05-09T10:46:22.393Z,32.35
2018-05-09T10:48:50.605Z,31.20
2018-05-09T10:51:18.933Z,30.19
2018-05-09T10:53:47.537Z,29.40
2018-05-09T10:56:15.743Z,28.90
2018-05-09T10:58:44.177Z,29.37
2018-05-09T11:01:12.756Z,28.50
2018-05-09T11:03:40.962Z,26.16
2018-05-09T11:06:09.248Z,25.73
2018-05-09T11:08:37.888Z,25.30
2018-05-09T11:11:06.092Z,26.17
2018-05-09T11:13:34.413Z,27.29
2018-05-09T11:16:03.041Z,27.95
2018-05-09T11:18:31.269Z,28.06
2018-05-09T11:20:59.664Z,28.45
2018-05-09T11:23:28.270Z,28.62
2018-05-09T11:25:56.476Z,28.68
2018-05-09T11:28:24.714Z,28.02
2018-05-09T11:30:53.458Z,28.27
2018-05-09T11:33:21.666Z,28.06
2018-05-09T11:35:49.899Z,27.75
2018-05-09T11:38:18.589Z,28.14
2018-05-09T11:40:46.826Z,28.21
2018-05-09T11:43:15.176Z,26.99
2018-05-09T11:45:43.865Z,26.00
2018-05-09T11:48:12.066Z,25.34
2018-05-09T11:50:40.370Z,23.62
2018-05-09T11:53:09.068Z,22.75
2018-05-09T11:55:37.271Z,21.20
2018-05-09T11:58:05.506Z,19.78
2018-05-09T12:00:34.118Z,19.60
2018-05-09T12:03:02.301Z,19.05
2018-05-09T12:05:30.667Z,19.39
2018-05-09T12:07:59.271Z,19.48
2018-05-09T12:10:27.564Z,19.57
2018-05-09T12:12:55.781Z,18.50
2018-05-09T12:15:24.417Z,18.77
2018-05-09T12:17:52.622Z,20.07
2018-05-09T12:20:21.044Z,18.83
2018-05-09T12:22:49.665Z,18.39
2018-05-09T12:25:17.898Z,18.51
2018-05-09T12:27:46.271Z,17.90
2018-05-09T12:30:14.814Z,18.04
2018-05-09T12:32:43.047Z,17.59
2018-05-09T12:35:11.383Z,17.80
2018-05-09T12:37:40.096Z,17.34
2018-05-09T12:40:08.345Z,17.71
2018-05-09T12:42:36.624Z,17.79
2018-05-09T12:45:05.190Z,17.73
2018-05-09T12:47:33.414Z,17.82
2018-05-09T12:50:01.708Z,17.70
2018-05-09T12:52:30.306Z,17.99
2018-05-09T12:54:58.501Z,16.98
2018-05-09T12:57:26.935Z,16.80
2018-05-09T12:59:55.513Z,16.69
2018-05-09T13:02:23.726Z,16.21
2018-05-09T13:04:51.994Z,16.36
2018-05-09T13:07:20.744Z,16.63
2018-05-09T13:09:48.929Z,17.83
2018-05-09T13:12:17.308Z,15.50
2018-05-09T13:14:45.919Z,15.52
2018-05-09T13:17:14.106Z,15.45
2018-05-09T13:19:42.457Z,15.06
2018-05-09T13:22:11.035Z,14.67
2018-05-09T13:24:39.246Z,15.41
2018-05-09T13:27:07.679Z,15.42
2018-05-09T13:29:36.267Z,16.25
2018-05-09T13:32:04.586Z,16.67
2018-05-09T13:34:32.768Z,15.78
2018-05-09T13:37:01.388Z,16.05
2018-05-09T13:39:29.611Z,16.20
2018-05-09T13:41:58.038Z,15.79
2018-05-09T13:44:26.641Z,15.51
2018-05-09T13:46:54.825Z,15.38
2018-05-09T13:49:23.218Z,15.76
2018-05-09T13:51:51.947Z,15.50
2018-05-09T13:54:20.180Z,15.64
2018-05-09T13:56:48.452Z,15.45
2018-05-09T13:59:17.018Z,16.06
2018-05-09T14:01:45.191Z,15.96
2018-05-09T14:04:13.534Z,15.38
2018-05-09T14:06:42.126Z,15.13
2018-05-09T14:09:10.331Z,14.94
2018-05-09T14:11:38.743Z,14.40
2018-05-09T14:14:07.286Z,14.75
2018-05-09T14:16:35.503Z,14.77
2018-05-09T14:19:03.938Z,14.74
2018-05-09T14:21:32.417Z,14.77
2018-05-09T14:24:00.609Z,15.25
2018-05-09T14:26:29.031Z,15.95
2018-05-09T14:28:57.946Z,15.86
2018-05-09T14:31:26.169Z,15.48
2018-05-09T14:33:54.363Z,16.35
2018-05-09T14:36:22.820Z,15.48
2018-05-09T14:38:51.066Z,16.15
2018-05-09T14:41:19.301Z,16.24
2018-05-09T14:43:47.923Z,16.67
2018-05-09T14:46:16.165Z,17.45
2018-05-09T14:48:44.476Z,18.66
2018-05-09T14:51:13.018Z,19.80
2018-05-09T14:53:41.222Z,19.99
2018-05-09T14:56:09.596Z,20.36
2018-05-09T14:58:38.193Z,20.85
2018-05-09T15:01:06.419Z,20.86
2018-05-09T15:03:34.654Z,21.00
2018-05-09T15:06:02.853Z,20.85
2018-05-09T15:08:31.121Z,20.99
2018-05-09T15:10:59.253Z,21.08
2018-05-09T15:13:27.946Z,21.42
2018-05-09T15:15:56.139Z,21.76
2018-05-09T15:18:24.422Z,22.00
2018-05-09T15:20:53.209Z,22.11
2018-05-09T15:23:21.401Z,22.42
2018-05-09T15:25:49.774Z,22.51
2018-05-09T15:28:18.603Z,22.55
2018-05-09T15:30:46.769Z,22.76
2018-05-09T15:33:15.481Z,23.15
2018-05-09T15:35:44.298Z,23.12
2018-05-09T15:38:12.532Z,22.97
2018-05-09T15:40:41.602Z,23.20
2018-05-09T15:43:10.447Z,23.39
2018-05-09T15:45:39.359Z,23.37
2018-05-09T15:48:07.598Z,23.04
2018-05-09T15:50:36.380Z,23.38
2018-05-09T15:53:05.212Z,23.43
2018-05-09T15:55:34.169Z,23.60
2018-05-09T15:58:02.411Z,23.17
2018-05-09T16:00:31.213Z,23.32
2018-05-09T16:03:00.091Z,24.00
2018-05-09T16:05:29.137Z,23.09
2018-05-09T16:07:57.410Z,23.34
2018-05-09T16:10:27.340Z,23.19
2018-05-09T16:12:56.176Z,23.85
2018-05-09T16:15:25.029Z,23.41
2018-05-09T16:17:54.030Z,23.65
2018-05-09T16:20:22.236Z,23.74
2018-05-09T16:22:51.098Z,23.55
2018-05-09T16:25:19.941Z,23.65
2018-05-09T16:27:49.070Z,23.90
2018-05-09T16:30:17.319Z,23.76
2018-05-09T16:32:45.898Z,23.26
2018-05-09T16:35:14.808Z,23.72
2018-05-09T16:37:43.887Z,23.51
2018-05-09T16:40:12.111Z,23.77
2018-05-09T16:42:40.853Z,24.15
2018-05-09T16:45:09.702Z,24.11
2018-05-09T16:47:38.765Z,24.37
2018-05-09T16:50:08.856Z,24.45
2018-05-09T16:52:37.504Z,24.47
2018-05-09T16:55:06.003Z,24.66
2018-05-09T16:57:34.783Z,24.94
2018-05-09T17:00:03.031Z,24.82
2018-05-09T17:02:31.260Z,24.76
2018-05-09T17:04:59.824Z,24.98
2018-05-09T17:07:28.043Z,24.94
2018-05-09T17:09:56.245Z,25.11
2018-05-09T17:12:24.942Z,25.23
2018-05-09T17:14:53.135Z,25.36
2018-05-09T17:17:21.305Z,25.47
2018-05-09T17:19:50.096Z,25.80
2018-05-09T17:22:30.172Z,25.31
2018-05-09T17:24:58.385Z,25.09
2018-05-09T17:27:26.588Z,24.91
2018-05-09T17:29:55.230Z,25.03
2018-05-09T17:32:23.517Z,25.30
2018-05-09T17:34:51.730Z,25.39
2018-05-09T17:37:20.357Z,25.37
2018-05-09T17:39:48.584Z,25.70
2018-05-09T17:42:16.788Z,25.42
2018-05-09T17:44:45.568Z,25.64
2018-05-09T17:47:13.782Z,27.51
2018-05-09T17:49:41.980Z,26.74
2018-05-09T17:52:10.801Z,26.46
2018-05-09T17:54:39.208Z,25.81
2018-05-09T17:57:07.484Z,27.08
2018-05-09T17:59:36.298Z,26.85
2018-05-09T18:02:04.955Z,27.03
2018-05-09T18:04:33.143Z,26.93
2018-05-09T18:07:01.343Z,27.76
2018-05-09T18:09:29.996Z,28.21
2018-05-09T18:11:58.234Z,27.95
2018-05-09T18:14:26.447Z,28.12
2018-05-09T18:16:55.173Z,28.46
2018-05-09T18:19:23.390Z,28.97
2018-05-09T18:21:52.278Z,29.31
2018-05-09T18:24:20.499Z,29.54
2018-05-09T18:26:49.025Z,29.77
2018-05-09T18:29:18.152Z,29.92
2018-05-09T18:31:46.822Z,30.33
2018-05-09T18:34:16.610Z,30.89
2018-05-09T18:36:45.680Z,30.64
2018-05-09T18:39:14.675Z,30.73
2018-05-09T18:41:43.574Z,31.83
2018-05-09T18:44:12.646Z,31.07
2018-05-09T18:46:40.899Z,31.60
2018-05-09T18:49:09.596Z,31.54
2018-05-09T18:51:39.177Z,31.52
2018-05-09T18:54:07.812Z,31.53
2018-05-09T18:56:37.874Z,31.50
2018-05-09T18:59:06.155Z,31.86
2018-05-09T19:01:34.814Z,31.92
2018-05-09T19:04:03.598Z,32.28
2018-05-09T19:06:32.729Z,32.36
2018-05-09T19:09:00.909Z,32.21
2018-05-09T19:11:29.688Z,32.14
2018-05-09T19:13:58.565Z,32.18
2018-05-09T19:16:27.594Z,32.29
2018-05-09T19:18:55.727Z,32.32
2018-05-09T19:21:24.645Z,32.66
2018-05-09T19:23:53.489Z,32.62
2018-05-09T19:26:22.528Z,32.65
2018-05-09T19:28:50.823Z,33.00
2018-05-09T19:31:19.531Z,32.60
2018-05-09T19:33:48.531Z,33.01
2018-05-09T19:36:17.479Z,33.44
2018-05-09T19:38:45.708Z,32.97
2018-05-09T19:41:14.460Z,33.00
2018-05-09T19:43:43.410Z,33.04
2018-05-09T19:46:12.523Z,32.79
2018-05-09T19:48:40.776Z,32.52
2018-05-09T19:51:09.498Z,32.61
2018-05-09T19:53:38.332Z,36.14
2018-05-09T19:56:07.361Z,37.83
2018-05-09T19:58:35.628Z,39.21
2018-05-09T20:01:04.396Z,40.20
2018-05-09T20:03:33.219Z,40.65
2018-05-09T20:06:02.151Z,41.19
2018-05-09T20:08:30.387Z,41.96
2018-05-09T20:10:59.223Z,42.49
2018-05-09T20:13:28.023Z,42.95
2018-05-09T20:15:57.154Z,43.33
2018-05-09T20:18:25.375Z,43.64
2018-05-09T20:20:54.170Z,43.89
2018-05-09T20:23:22.973Z,44.14
2018-05-09T20:25:51.996Z,44.42
2018-05-09T20:28:20.209Z,44.56
2018-05-09T20:30:54.725Z,44.69
2018-05-09T20:33:23.321Z,44.79
2018-05-09T20:35:52.478Z,45.03
2018-05-09T20:38:20.729Z,44.99
2018-05-09T20:40:49.024Z,45.13
2018-05-09T20:43:17.921Z,45.19
2018-05-09T20:45:46.909Z,45.10
2018-05-09T20:48:15.168Z,45.37
2018-05-09T20:50:43.973Z,45.56
2018-05-09T20:53:13.110Z,45.39
2018-05-09T20:55:41.866Z,45.65
2018-05-09T20:58:10.083Z,45.64
2018-05-09T21:00:39.036Z,45.64
2018-05-09T21:03:07.875Z,45.57
2018-05-09T21:05:36.935Z,45.58
2018-05-09T21:08:05.164Z,45.83
2018-05-09T21:10:33.878Z,45.88
2018-05-09T21:13:02.841Z,45.96
2018-05-09T21:15:31.955Z,46.21
2018-05-09T21:18:00.115Z,46.39
2018-05-09T21:20:28.869Z,46.16
2018-05-09T21:22:57.767Z,46.19
2018-05-09T21:25:26.731Z,46.52
2018-05-09T21:27:54.925Z,46.56
2018-05-09T21:30:23.796Z,46.96
2018-05-09T21:32:54.611Z,46.97
2018-05-09T21:35:23.214Z,47.11
2018-05-09T21:37:51.827Z,47.26
2018-05-09T21:40:20.087Z,47.67
2018-05-09T21:42:48.858Z,47.96
2018-05-09T21:45:17.790Z,48.53
2018-05-09T21:47:46.730Z,48.77
2018-05-09T21:50:14.932Z,49.20
2018-05-09T21:52:43.797Z,49.37
2018-05-09T21:55:12.719Z,49.82
2018-05-09T21:57:41.632Z,50.04
2018-05-09T22:00:09.869Z,50.75
2018-05-09T22:02:38.748Z,51.08
2018-05-09T22:05:07.732Z,51.70
2018-05-09T22:07:36.593Z,52.08
2018-05-09T22:10:04.860Z,52.24
2018-05-09T22:12:33.604Z,52.35
2018-05-09T22:15:02.544Z,52.83
2018-05-09T22:17:31.444Z,52.75
2018-05-09T22:19:59.665Z,53.03
2018-05-09T22:22:28.665Z,52.96
2018-05-09T22:24:57.694Z,53.62
2018-05-09T22:27:26.597Z,53.58
2018-05-09T22:29:54.808Z,54.06
2018-05-09T22:32:23.624Z,54.25
2018-05-09T22:34:52.598Z,53.97
2018-05-09T22:37:21.585Z,54.04
2018-05-09T22:39:49.804Z,53.87
2018-05-09T22:42:18.672Z,53.92
2018-05-09T22:44:47.471Z,54.11
2018-05-09T22:47:15.689Z,54.38
2018-05-09T22:49:43.895Z,54.80
2018-05-09T22:52:12.503Z,54.86
2018-05-09T22:54:40.728Z,54.99
2018-05-09T22:57:08.913Z,55.37
2018-05-09T22:59:37.628Z,55.48
2018-05-09T23:02:05.894Z,55.50
2018-05-09T23:04:34.097Z,55.25
2018-05-09T23:07:02.587Z,55.62
2018-05-09T23:09:30.816Z,55.77
2018-05-09T23:11:59.030Z,56.06
2018-05-09T23:14:27.828Z,56.19
2018-05-09T23:16:57.595Z,56.59
2018-05-09T23:19:25.900Z,56.57
2018-05-09T23:21:54.108Z,56.60
2018-05-09T23:24:24.012Z,56.60
2018-05-09T23:26:52.649Z,56.59
2018-05-09T23:29:20.855Z,56.39
2018-05-09T23:31:49.166Z,56.49
2018-05-09T23:34:17.823Z,56.56
2018-05-09T23:36:46.028Z,56.94
2018-05-09T23:39:14.306Z,57.45
2018-05-09T23:41:42.972Z,57.43
2018-05-09T23:44:11.170Z,57.49
2018-05-09T23:46:39.392Z,57.80
2018-05-09T23:49:07.991Z,58.07
2018-05-09T23:51:36.213Z,58.30
2018-05-09T23:54:04.468Z,58.20
2018-05-09T23:56:33.042Z,58.04
2018-05-09T23:59:01.298Z,58.48
